sensor_id;sensor_type;location;lat;lon;timestamp;P1;durP1;ratioP1;P2;durP2;ratioP2
74375;SDS011;62812;55.188;61.302;2022-10-31T00:01:49;9.77;;;3.88;;
74375;SDS011;62812;55.188;61.302;2022-10-31T00:04:15;9.00;;;3.13;;
74375;SDS011;62812;55.188;61.302;2022-10-31T00:06:43;11.85;;;3.75;;
74375;SDS011;62812;55.188;61.302;2022-10-31T00:09:10;11.90;;;4.55;;
74375;SDS011;62812;55.188;61.302;2022-10-31T00:11:37;8.80;;;3.70;;
74375;SDS011;62812;55.188;61.302;2022-10-31T00:14:03;14.50;;;4.10;;
74375;SDS011;62812;55.188;61.302;2022-10-31T00:16:30;12.18;;;4.82;;
74375;SDS011;62812;55.188;61.302;2022-10-31T00:18:58;12.50;;;3.97;;
74375;SDS011;62812;55.188;61.302;2022-10-31T00:21:25;8.80;;;3.70;;
74375;SDS011;62812;55.188;61.302;2022-10-31T00:23:54;10.60;;;3.78;;
74375;SDS011;62812;55.188;61.302;2022-10-31T00:26:20;5.72;;;2.58;;
74375;SDS011;62812;55.188;61.302;2022-10-31T00:28:47;10.95;;;4.20;;
74375;SDS011;62812;55.188;61.302;2022-10-31T00:31:13;9.80;;;3.40;;
74375;SDS011;62812;55.188;61.302;2022-10-31T00:33:40;7.70;;;3.20;;
74375;SDS011;62812;55.188;61.302;2022-10-31T00:36:07;25.45;;;4.63;;
74375;SDS011;62812;55.188;61.302;2022-10-31T00:38:37;9.98;;;3.95;;
74375;SDS011;62812;55.188;61.302;2022-10-31T00:41:05;10.55;;;4.15;;
74375;SDS011;62812;55.188;61.302;2022-10-31T00:43:31;11.35;;;3.30;;
74375;SDS011;62812;55.188;61.302;2022-10-31T00:45:58;18.85;;;3.90;;
74375;SDS011;62812;55.188;61.302;2022-10-31T00:48:24;6.88;;;2.80;;
74375;SDS011;62812;55.188;61.302;2022-10-31T00:50:51;9.13;;;3.90;;
74375;SDS011;62812;55.188;61.302;2022-10-31T00:53:17;12.38;;;3.95;;
74375;SDS011;62812;55.188;61.302;2022-10-31T00:55:44;10.02;;;3.17;;
74375;SDS011;62812;55.188;61.302;2022-10-31T00:58:11;13.52;;;4.40;;
74375;SDS011;62812;55.188;61.302;2022-10-31T01:00:38;8.93;;;3.28;;
74375;SDS011;62812;55.188;61.302;2022-10-31T01:03:05;8.20;;;2.20;;
74375;SDS011;62812;55.188;61.302;2022-10-31T01:05:31;10.32;;;4.63;;
74375;SDS011;62812;55.188;61.302;2022-10-31T01:07:58;6.05;;;2.10;;
74375;SDS011;62812;55.188;61.302;2022-10-31T01:10:30;11.52;;;4.10;;
74375;SDS011;62812;55.188;61.302;2022-10-31T01:12:58;8.65;;;3.05;;
74375;SDS011;62812;55.188;61.302;2022-10-31T01:18:41;11.75;;;3.97;;
74375;SDS011;62812;55.188;61.302;2022-10-31T01:21:11;10.80;;;4.20;;
74375;SDS011;62812;55.188;61.302;2022-10-31T01:23:38;10.43;;;4.70;;
74375;SDS011;62812;55.188;61.302;2022-10-31T01:26:12;9.13;;;3.72;;
74375;SDS011;62812;55.188;61.302;2022-10-31T01:29:00;10.07;;;3.47;;
74375;SDS011;62812;55.188;61.302;2022-10-31T01:32:02;11.23;;;4.10;;
74375;SDS011;62812;55.188;61.302;2022-10-31T01:34:30;11.75;;;3.35;;
74375;SDS011;62812;55.188;61.302;2022-10-31T01:36:57;8.20;;;3.22;;
74375;SDS011;62812;55.188;61.302;2022-10-31T01:39:23;8.75;;;2.90;;
74375;SDS011;62812;55.188;61.302;2022-10-31T01:41:50;10.63;;;3.75;;
74375;SDS011;62812;55.188;61.302;2022-10-31T01:47:15;17.30;;;3.42;;
74375;SDS011;62812;55.188;61.302;2022-10-31T01:49:46;11.18;;;3.95;;
74375;SDS011;62812;55.188;61.302;2022-10-31T01:52:16;8.02;;;3.08;;
74375;SDS011;62812;55.188;61.302;2022-10-31T01:54:49;12.43;;;4.05;;
74375;SDS011;62812;55.188;61.302;2022-10-31T01:59:49;8.23;;;3.25;;
74375;SDS011;62812;55.188;61.302;2022-10-31T02:02:19;10.73;;;3.55;;
74375;SDS011;62812;55.188;61.302;2022-10-31T02:04:47;8.57;;;3.13;;
74375;SDS011;62812;55.188;61.302;2022-10-31T02:07:17;12.23;;;3.05;;
74375;SDS011;62812;55.188;61.302;2022-10-31T02:09:49;12.00;;;4.65;;
74375;SDS011;62812;55.188;61.302;2022-10-31T02:12:19;14.98;;;5.80;;
74375;SDS011;62812;55.188;61.302;2022-10-31T02:14:46;18.48;;;6.45;;
74375;SDS011;62812;55.188;61.302;2022-10-31T02:17:12;15.40;;;5.35;;
74375;SDS011;62812;55.188;61.302;2022-10-31T02:19:41;13.05;;;5.10;;
74375;SDS011;62812;55.188;61.302;2022-10-31T02:22:21;11.38;;;4.70;;
74375;SDS011;62812;55.188;61.302;2022-10-31T02:24:57;11.55;;;3.58;;
74375;SDS011;62812;55.188;61.302;2022-10-31T02:27:43;13.15;;;4.38;;
74375;SDS011;62812;55.188;61.302;2022-10-31T02:30:35;13.75;;;4.45;;
74375;SDS011;62812;55.188;61.302;2022-10-31T02:33:18;16.27;;;4.28;;
74375;SDS011;62812;55.188;61.302;2022-10-31T02:36:04;11.43;;;3.65;;
74375;SDS011;62812;55.188;61.302;2022-10-31T02:38:38;11.30;;;3.78;;
74375;SDS011;62812;55.188;61.302;2022-10-31T02:41:15;12.05;;;3.00;;
74375;SDS011;62812;55.188;61.302;2022-10-31T02:43:57;6.35;;;2.45;;
74375;SDS011;62812;55.188;61.302;2022-10-31T02:46:32;10.85;;;3.85;;
74375;SDS011;62812;55.188;61.302;2022-10-31T02:49:05;7.70;;;3.85;;
74375;SDS011;62812;55.188;61.302;2022-10-31T02:51:37;8.85;;;3.20;;
74375;SDS011;62812;55.188;61.302;2022-10-31T02:54:05;9.57;;;3.40;;
74375;SDS011;62812;55.188;61.302;2022-10-31T02:56:41;7.53;;;2.90;;
74375;SDS011;62812;55.188;61.302;2022-10-31T02:59:08;6.43;;;2.97;;
74375;SDS011;62812;55.188;61.302;2022-10-31T03:04:58;6.40;;;2.45;;
74375;SDS011;62812;55.188;61.302;2022-10-31T03:07:37;6.55;;;3.00;;
74375;SDS011;62812;55.188;61.302;2022-10-31T03:10:11;7.30;;;2.67;;
74375;SDS011;62812;55.188;61.302;2022-10-31T03:12:47;7.53;;;3.08;;
74375;SDS011;62812;55.188;61.302;2022-10-31T03:15:22;7.00;;;2.55;;
74375;SDS011;62812;55.188;61.302;2022-10-31T03:17:55;8.93;;;3.58;;
74375;SDS011;62812;55.188;61.302;2022-10-31T03:20:34;4.22;;;1.90;;
74375;SDS011;62812;55.188;61.302;2022-10-31T03:23:05;7.53;;;2.92;;
74375;SDS011;62812;55.188;61.302;2022-10-31T03:25:36;9.40;;;3.08;;
74375;SDS011;62812;55.188;61.302;2022-10-31T03:28:04;10.02;;;3.70;;
74375;SDS011;62812;55.188;61.302;2022-10-31T03:30:33;7.28;;;3.10;;
74375;SDS011;62812;55.188;61.302;2022-10-31T03:33:05;6.60;;;3.05;;
74375;SDS011;62812;55.188;61.302;2022-10-31T03:35:37;12.65;;;2.85;;
74375;SDS011;62812;55.188;61.302;2022-10-31T03:38:13;8.80;;;3.40;;
74375;SDS011;62812;55.188;61.302;2022-10-31T03:40:41;11.68;;;3.28;;
74375;SDS011;62812;55.188;61.302;2022-10-31T03:43:16;8.02;;;3.08;;
74375;SDS011;62812;55.188;61.302;2022-10-31T03:45:50;11.98;;;3.67;;
74375;SDS011;62812;55.188;61.302;2022-10-31T03:48:17;6.70;;;2.78;;
74375;SDS011;62812;55.188;61.302;2022-10-31T03:50:49;6.53;;;3.08;;
74375;SDS011;62812;55.188;61.302;2022-10-31T03:53:22;8.50;;;3.58;;
74375;SDS011;62812;55.188;61.302;2022-10-31T03:55:59;7.40;;;3.20;;
74375;SDS011;62812;55.188;61.302;2022-10-31T03:59:00;8.88;;;3.90;;
74375;SDS011;62812;55.188;61.302;2022-10-31T04:01:32;11.15;;;2.60;;
74375;SDS011;62812;55.188;61.302;2022-10-31T04:04:02;9.63;;;2.55;;
74375;SDS011;62812;55.188;61.302;2022-10-31T04:06:34;11.65;;;3.60;;
74375;SDS011;62812;55.188;61.302;2022-10-31T04:09:14;10.60;;;3.38;;
74375;SDS011;62812;55.188;61.302;2022-10-31T04:11:45;8.90;;;4.00;;
74375;SDS011;62812;55.188;61.302;2022-10-31T04:14:15;8.02;;;2.72;;
74375;SDS011;62812;55.188;61.302;2022-10-31T04:16:42;5.20;;;2.03;;
74375;SDS011;62812;55.188;61.302;2022-10-31T04:19:10;13.13;;;3.92;;
74375;SDS011;62812;55.188;61.302;2022-10-31T04:21:38;9.00;;;3.50;;
74375;SDS011;62812;55.188;61.302;2022-10-31T04:24:05;7.85;;;3.20;;
74375;SDS011;62812;55.188;61.302;2022-10-31T04:26:31;9.18;;;3.22;;
74375;SDS011;62812;55.188;61.302;2022-10-31T04:29:00;9.45;;;3.63;;
74375;SDS011;62812;55.188;61.302;2022-10-31T04:31:27;8.02;;;3.50;;
74375;SDS011;62812;55.188;61.302;2022-10-31T04:33:56;6.90;;;2.70;;
74375;SDS011;62812;55.188;61.302;2022-10-31T04:36:22;14.05;;;3.30;;
74375;SDS011;62812;55.188;61.302;2022-10-31T04:38:53;6.35;;;2.45;;
74375;SDS011;62812;55.188;61.302;2022-10-31T04:41:22;6.00;;;2.00;;
74375;SDS011;62812;55.188;61.302;2022-10-31T04:43:48;6.68;;;2.60;;
74375;SDS011;62812;55.188;61.302;2022-10-31T04:46:15;8.20;;;3.53;;
74375;SDS011;62812;55.188;61.302;2022-10-31T04:48:42;9.18;;;3.05;;
74375;SDS011;62812;55.188;61.302;2022-10-31T04:51:08;9.13;;;2.75;;
74375;SDS011;62812;55.188;61.302;2022-10-31T04:53:35;8.23;;;3.28;;
74375;SDS011;62812;55.188;61.302;2022-10-31T04:56:03;4.95;;;2.05;;
74375;SDS011;62812;55.188;61.302;2022-10-31T04:58:30;7.47;;;2.80;;
74375;SDS011;62812;55.188;61.302;2022-10-31T05:01:01;9.57;;;3.25;;
74375;SDS011;62812;55.188;61.302;2022-10-31T05:03:28;6.97;;;2.28;;
74375;SDS011;62812;55.188;61.302;2022-10-31T05:05:55;7.32;;;3.15;;
74375;SDS011;62812;55.188;61.302;2022-10-31T05:08:22;10.57;;;3.30;;
74375;SDS011;62812;55.188;61.302;2022-10-31T05:10:48;8.63;;;3.55;;
74375;SDS011;62812;55.188;61.302;2022-10-31T05:13:17;7.10;;;3.42;;
74375;SDS011;62812;55.188;61.302;2022-10-31T05:15:45;6.68;;;3.38;;
74375;SDS011;62812;55.188;61.302;2022-10-31T05:18:11;8.18;;;3.17;;
74375;SDS011;62812;55.188;61.302;2022-10-31T05:20:38;4.57;;;1.48;;
74375;SDS011;62812;55.188;61.302;2022-10-31T05:23:05;6.60;;;2.92;;
74375;SDS011;62812;55.188;61.302;2022-10-31T05:25:32;7.10;;;2.47;;
74375;SDS011;62812;55.188;61.302;2022-10-31T05:27:59;6.95;;;2.75;;
74375;SDS011;62812;55.188;61.302;2022-10-31T05:30:39;5.32;;;2.63;;
74375;SDS011;62812;55.188;61.302;2022-10-31T05:33:28;6.45;;;2.97;;
74375;SDS011;62812;55.188;61.302;2022-10-31T05:36:04;5.03;;;2.28;;
74375;SDS011;62812;55.188;61.302;2022-10-31T05:38:35;6.57;;;2.80;;
74375;SDS011;62812;55.188;61.302;2022-10-31T05:41:02;5.93;;;2.60;;
74375;SDS011;62812;55.188;61.302;2022-10-31T05:43:33;6.07;;;2.75;;
74375;SDS011;62812;55.188;61.302;2022-10-31T05:46:03;6.47;;;2.50;;
74375;SDS011;62812;55.188;61.302;2022-10-31T05:48:32;6.60;;;2.60;;
74375;SDS011;62812;55.188;61.302;2022-10-31T05:51:03;5.85;;;2.58;;
74375;SDS011;62812;55.188;61.302;2022-10-31T05:53:31;6.60;;;2.42;;
74375;SDS011;62812;55.188;61.302;2022-10-31T05:55:57;5.07;;;2.30;;
74375;SDS011;62812;55.188;61.302;2022-10-31T05:58:24;4.68;;;2.25;;
74375;SDS011;62812;55.188;61.302;2022-10-31T06:00:50;5.22;;;2.60;;
74375;SDS011;62812;55.188;61.302;2022-10-31T06:03:18;3.72;;;1.52;;
74375;SDS011;62812;55.188;61.302;2022-10-31T06:05:44;4.85;;;2.40;;
74375;SDS011;62812;55.188;61.302;2022-10-31T06:08:11;5.30;;;1.98;;
74375;SDS011;62812;55.188;61.302;2022-10-31T06:10:37;6.57;;;2.28;;
74375;SDS011;62812;55.188;61.302;2022-10-31T06:13:04;5.80;;;2.13;;
74375;SDS011;62812;55.188;61.302;2022-10-31T06:15:32;7.20;;;2.75;;
74375;SDS011;62812;55.188;61.302;2022-10-31T06:20:47;7.60;;;2.47;;
74375;SDS011;62812;55.188;61.302;2022-10-31T06:23:14;5.13;;;2.13;;
74375;SDS011;62812;55.188;61.302;2022-10-31T06:25:41;8.25;;;2.65;;
74375;SDS011;62812;55.188;61.302;2022-10-31T06:28:07;4.95;;;2.00;;
74375;SDS011;62812;55.188;61.302;2022-10-31T06:30:37;5.85;;;2.67;;
74375;SDS011;62812;55.188;61.302;2022-10-31T06:33:04;19.40;;;7.63;;
74375;SDS011;62812;55.188;61.302;2022-10-31T06:35:44;32.15;;;12.52;;
74375;SDS011;62812;55.188;61.302;2022-10-31T06:39:33;21.38;;;8.02;;
74375;SDS011;62812;55.188;61.302;2022-10-31T06:42:10;16.95;;;8.07;;
74375;SDS011;62812;55.188;61.302;2022-10-31T06:44:36;14.13;;;5.97;;
74375;SDS011;62812;55.188;61.302;2022-10-31T06:47:05;14.98;;;7.82;;
74375;SDS011;62812;55.188;61.302;2022-10-31T06:49:35;17.83;;;6.03;;
74375;SDS011;62812;55.188;61.302;2022-10-31T06:52:04;10.20;;;4.32;;
74375;SDS011;62812;55.188;61.302;2022-10-31T06:54:31;11.50;;;5.32;;
74375;SDS011;62812;55.188;61.302;2022-10-31T06:56:58;8.45;;;4.03;;
74375;SDS011;62812;55.188;61.302;2022-10-31T06:59:27;7.82;;;3.63;;
74375;SDS011;62812;55.188;61.302;2022-10-31T07:01:53;12.25;;;5.13;;
74375;SDS011;62812;55.188;61.302;2022-10-31T07:04:20;6.60;;;3.35;;
74375;SDS011;62812;55.188;61.302;2022-10-31T07:06:50;7.68;;;3.60;;
74375;SDS011;62812;55.188;61.302;2022-10-31T07:09:18;9.43;;;3.75;;
74375;SDS011;62812;55.188;61.302;2022-10-31T07:11:48;8.50;;;3.83;;
74375;SDS011;62812;55.188;61.302;2022-10-31T07:14:21;7.30;;;3.17;;
74375;SDS011;62812;55.188;61.302;2022-10-31T07:16:54;6.15;;;3.00;;
74375;SDS011;62812;55.188;61.302;2022-10-31T07:19:20;6.47;;;2.85;;
74375;SDS011;62812;55.188;61.302;2022-10-31T07:21:47;6.38;;;3.40;;
74375;SDS011;62812;55.188;61.302;2022-10-31T07:24:15;6.22;;;3.25;;
74375;SDS011;62812;55.188;61.302;2022-10-31T07:26:43;7.18;;;2.88;;
74375;SDS011;62812;55.188;61.302;2022-10-31T07:29:15;6.80;;;2.63;;
74375;SDS011;62812;55.188;61.302;2022-10-31T07:31:41;5.32;;;2.50;;
74375;SDS011;62812;55.188;61.302;2022-10-31T07:34:09;6.15;;;2.45;;
74375;SDS011;62812;55.188;61.302;2022-10-31T07:36:36;5.85;;;2.35;;
74375;SDS011;62812;55.188;61.302;2022-10-31T07:39:02;5.85;;;2.35;;
74375;SDS011;62812;55.188;61.302;2022-10-31T07:41:30;5.90;;;2.75;;
74375;SDS011;62812;55.188;61.302;2022-10-31T07:43:58;4.88;;;2.50;;
74375;SDS011;62812;55.188;61.302;2022-10-31T07:46:25;8.13;;;2.83;;
74375;SDS011;62812;55.188;61.302;2022-10-31T07:48:51;5.22;;;2.45;;
74375;SDS011;62812;55.188;61.302;2022-10-31T07:51:18;5.35;;;2.35;;
74375;SDS011;62812;55.188;61.302;2022-10-31T07:53:44;5.53;;;2.53;;
74375;SDS011;62812;55.188;61.302;2022-10-31T07:56:11;6.63;;;2.88;;
74375;SDS011;62812;55.188;61.302;2022-10-31T07:58:37;4.32;;;2.22;;
74375;SDS011;62812;55.188;61.302;2022-10-31T08:01:05;5.25;;;2.50;;
74375;SDS011;62812;55.188;61.302;2022-10-31T08:03:31;5.07;;;2.20;;
74375;SDS011;62812;55.188;61.302;2022-10-31T08:06:01;4.93;;;2.17;;
74375;SDS011;62812;55.188;61.302;2022-10-31T08:08:27;5.40;;;2.38;;
74375;SDS011;62812;55.188;61.302;2022-10-31T08:10:54;5.03;;;2.50;;
74375;SDS011;62812;55.188;61.302;2022-10-31T08:13:21;6.25;;;3.00;;
74375;SDS011;62812;55.188;61.302;2022-10-31T08:15:47;4.68;;;2.33;;
74375;SDS011;62812;55.188;61.302;2022-10-31T08:18:17;6.85;;;2.60;;
74375;SDS011;62812;55.188;61.302;2022-10-31T08:20:44;5.22;;;2.50;;
74375;SDS011;62812;55.188;61.302;2022-10-31T08:23:10;4.45;;;2.20;;
74375;SDS011;62812;55.188;61.302;2022-10-31T08:25:38;5.20;;;2.30;;
74375;SDS011;62812;55.188;61.302;2022-10-31T08:28:05;3.92;;;1.70;;
74375;SDS011;62812;55.188;61.302;2022-10-31T08:30:33;4.72;;;2.53;;
74375;SDS011;62812;55.188;61.302;2022-10-31T08:33:01;5.22;;;2.60;;
74375;SDS011;62812;55.188;61.302;2022-10-31T08:35:42;4.47;;;2.28;;
74375;SDS011;62812;55.188;61.302;2022-10-31T08:38:09;6.32;;;2.22;;
74375;SDS011;62812;55.188;61.302;2022-10-31T08:40:36;4.20;;;1.90;;
74375;SDS011;62812;55.188;61.302;2022-10-31T08:43:04;4.93;;;1.83;;
74375;SDS011;62812;55.188;61.302;2022-10-31T08:45:33;5.05;;;1.90;;
74375;SDS011;62812;55.188;61.302;2022-10-31T08:48:00;5.13;;;2.22;;
74375;SDS011;62812;55.188;61.302;2022-10-31T08:50:28;5.38;;;2.38;;
74375;SDS011;62812;55.188;61.302;2022-10-31T08:53:01;5.00;;;2.60;;
74375;SDS011;62812;55.188;61.302;2022-10-31T08:55:27;5.47;;;2.22;;
74375;SDS011;62812;55.188;61.302;2022-10-31T08:57:54;4.78;;;2.13;;
74375;SDS011;62812;55.188;61.302;2022-10-31T09:00:21;4.22;;;1.88;;
74375;SDS011;62812;55.188;61.302;2022-10-31T09:02:48;5.35;;;2.05;;
74375;SDS011;62812;55.188;61.302;2022-10-31T09:05:21;4.47;;;1.85;;
74375;SDS011;62812;55.188;61.302;2022-10-31T09:07:47;4.70;;;2.00;;
74375;SDS011;62812;55.188;61.302;2022-10-31T09:10:15;5.13;;;1.83;;
74375;SDS011;62812;55.188;61.302;2022-10-31T09:12:42;4.78;;;1.75;;
74375;SDS011;62812;55.188;61.302;2022-10-31T09:15:09;5.20;;;1.60;;
74375;SDS011;62812;55.188;61.302;2022-10-31T09:17:35;5.00;;;1.77;;
74375;SDS011;62812;55.188;61.302;2022-10-31T09:20:02;4.40;;;1.90;;
74375;SDS011;62812;55.188;61.302;2022-10-31T09:22:28;3.95;;;1.45;;
74375;SDS011;62812;55.188;61.302;2022-10-31T09:24:55;3.42;;;1.40;;
74375;SDS011;62812;55.188;61.302;2022-10-31T09:27:23;3.50;;;1.35;;
74375;SDS011;62812;55.188;61.302;2022-10-31T09:29:49;4.45;;;1.65;;
74375;SDS011;62812;55.188;61.302;2022-10-31T09:32:16;4.10;;;1.33;;
74375;SDS011;62812;55.188;61.302;2022-10-31T09:34:42;3.30;;;1.23;;
74375;SDS011;62812;55.188;61.302;2022-10-31T09:37:09;2.38;;;1.00;;
74375;SDS011;62812;55.188;61.302;2022-10-31T09:39:35;3.80;;;1.50;;
74375;SDS011;62812;55.188;61.302;2022-10-31T09:42:04;3.38;;;1.00;;
74375;SDS011;62812;55.188;61.302;2022-10-31T09:44:46;7.90;;;1.27;;
74375;SDS011;62812;55.188;61.302;2022-10-31T09:47:21;3.47;;;1.08;;
74375;SDS011;62812;55.188;61.302;2022-10-31T09:50:06;3.78;;;1.20;;
74375;SDS011;62812;55.188;61.302;2022-10-31T09:52:38;1.83;;;0.65;;
74375;SDS011;62812;55.188;61.302;2022-10-31T09:55:12;2.40;;;0.85;;
74375;SDS011;62812;55.188;61.302;2022-10-31T09:57:42;2.33;;;0.82;;
74375;SDS011;62812;55.188;61.302;2022-10-31T10:00:14;2.55;;;0.95;;
74375;SDS011;62812;55.188;61.302;2022-10-31T10:02:43;2.47;;;0.90;;
74375;SDS011;62812;55.188;61.302;2022-10-31T10:05:17;2.88;;;0.98;;
74375;SDS011;62812;55.188;61.302;2022-10-31T10:07:48;2.58;;;0.98;;
74375;SDS011;62812;55.188;61.302;2022-10-31T10:10:30;2.72;;;1.05;;
74375;SDS011;62812;55.188;61.302;2022-10-31T10:13:08;2.50;;;0.90;;
74375;SDS011;62812;55.188;61.302;2022-10-31T10:18:41;2.90;;;0.90;;
74375;SDS011;62812;55.188;61.302;2022-10-31T10:21:20;3.92;;;1.02;;
74375;SDS011;62812;55.188;61.302;2022-10-31T10:23:56;2.67;;;1.02;;
74375;SDS011;62812;55.188;61.302;2022-10-31T10:26:35;2.70;;;1.00;;
74375;SDS011;62812;55.188;61.302;2022-10-31T10:29:08;2.67;;;1.08;;
74375;SDS011;62812;55.188;61.302;2022-10-31T10:31:46;3.58;;;1.20;;
74375;SDS011;62812;55.188;61.302;2022-10-31T10:34:18;3.05;;;1.20;;
74375;SDS011;62812;55.188;61.302;2022-10-31T10:36:50;2.90;;;1.17;;
74375;SDS011;62812;55.188;61.302;2022-10-31T10:39:27;3.97;;;1.30;;
74375;SDS011;62812;55.188;61.302;2022-10-31T10:41:58;4.20;;;1.10;;
74375;SDS011;62812;55.188;61.302;2022-10-31T10:44:45;3.35;;;1.40;;
74375;SDS011;62812;55.188;61.302;2022-10-31T10:47:36;3.40;;;1.30;;
74375;SDS011;62812;55.188;61.302;2022-10-31T10:50:10;4.57;;;1.73;;
74375;SDS011;62812;55.188;61.302;2022-10-31T10:52:41;4.97;;;1.52;;
74375;SDS011;62812;55.188;61.302;2022-10-31T10:55:22;4.15;;;1.10;;
74375;SDS011;62812;55.188;61.302;2022-10-31T10:57:55;4.05;;;1.30;;
74375;SDS011;62812;55.188;61.302;2022-10-31T11:01:09;3.70;;;1.48;;
74375;SDS011;62812;55.188;61.302;2022-10-31T11:03:43;4.32;;;1.60;;
74375;SDS011;62812;55.188;61.302;2022-10-31T11:06:16;4.55;;;1.35;;
74375;SDS011;62812;55.188;61.302;2022-10-31T11:08:50;5.20;;;1.90;;
74375;SDS011;62812;55.188;61.302;2022-10-31T11:11:23;3.47;;;1.52;;
74375;SDS011;62812;55.188;61.302;2022-10-31T11:13:55;3.03;;;1.50;;
74375;SDS011;62812;55.188;61.302;2022-10-31T11:16:31;5.05;;;1.98;;
74375;SDS011;62812;55.188;61.302;2022-10-31T11:19:12;5.63;;;2.22;;
74375;SDS011;62812;55.188;61.302;2022-10-31T11:21:42;3.28;;;1.38;;
74375;SDS011;62812;55.188;61.302;2022-10-31T11:24:14;3.85;;;1.58;;
74375;SDS011;62812;55.188;61.302;2022-10-31T11:26:43;3.58;;;1.30;;
74375;SDS011;62812;55.188;61.302;2022-10-31T11:29:12;3.63;;;1.30;;
74375;SDS011;62812;55.188;61.302;2022-10-31T11:31:41;5.53;;;1.80;;
74375;SDS011;62812;55.188;61.302;2022-10-31T11:34:22;6.15;;;1.70;;
74375;SDS011;62812;55.188;61.302;2022-10-31T11:36:55;4.43;;;1.50;;
74375;SDS011;62812;55.188;61.302;2022-10-31T11:39:25;5.30;;;1.38;;
74375;SDS011;62812;55.188;61.302;2022-10-31T11:41:53;4.15;;;1.30;;
74375;SDS011;62812;55.188;61.302;2022-10-31T11:44:21;2.90;;;1.30;;
74375;SDS011;62812;55.188;61.302;2022-10-31T11:47:12;3.65;;;1.30;;
74375;SDS011;62812;55.188;61.302;2022-10-31T11:49:42;3.55;;;1.33;;
74375;SDS011;62812;55.188;61.302;2022-10-31T11:52:13;3.13;;;1.10;;
74375;SDS011;62812;55.188;61.302;2022-10-31T11:54:44;4.40;;;1.58;;
74375;SDS011;62812;55.188;61.302;2022-10-31T11:57:22;3.45;;;1.38;;
74375;SDS011;62812;55.188;61.302;2022-10-31T11:59:51;3.70;;;1.33;;
74375;SDS011;62812;55.188;61.302;2022-10-31T12:02:19;5.63;;;2.05;;
74375;SDS011;62812;55.188;61.302;2022-10-31T12:04:48;4.50;;;1.90;;
74375;SDS011;62812;55.188;61.302;2022-10-31T12:07:22;3.47;;;1.55;;
74375;SDS011;62812;55.188;61.302;2022-10-31T12:09:49;3.40;;;1.20;;
74375;SDS011;62812;55.188;61.302;2022-10-31T12:17:57;4.43;;;1.80;;
74375;SDS011;62812;55.188;61.302;2022-10-31T12:20:37;4.20;;;1.85;;
74375;SDS011;62812;55.188;61.302;2022-10-31T12:23:12;3.97;;;1.70;;
74375;SDS011;62812;55.188;61.302;2022-10-31T12:25:49;5.32;;;1.27;;
74375;SDS011;62812;55.188;61.302;2022-10-31T12:28:32;3.75;;;1.48;;
74375;SDS011;62812;55.188;61.302;2022-10-31T12:31:14;5.40;;;1.80;;
74375;SDS011;62812;55.188;61.302;2022-10-31T12:33:52;4.13;;;1.45;;
74375;SDS011;62812;55.188;61.302;2022-10-31T12:39:12;2.80;;;1.05;;
74375;SDS011;62812;55.188;61.302;2022-10-31T12:41:51;3.90;;;1.45;;
74375;SDS011;62812;55.188;61.302;2022-10-31T12:44:43;5.18;;;1.67;;
74375;SDS011;62812;55.188;61.302;2022-10-31T12:47:33;4.07;;;1.75;;
74375;SDS011;62812;55.188;61.302;2022-10-31T12:50:26;4.43;;;1.77;;
74375;SDS011;62812;55.188;61.302;2022-10-31T12:53:05;4.60;;;1.75;;
74375;SDS011;62812;55.188;61.302;2022-10-31T12:55:44;4.07;;;1.60;;
74375;SDS011;62812;55.188;61.302;2022-10-31T12:58:21;4.60;;;1.65;;
74375;SDS011;62812;55.188;61.302;2022-10-31T13:00:53;4.72;;;1.60;;
74375;SDS011;62812;55.188;61.302;2022-10-31T13:03:26;4.25;;;1.83;;
74375;SDS011;62812;55.188;61.302;2022-10-31T13:05:57;4.43;;;1.90;;
74375;SDS011;62812;55.188;61.302;2022-10-31T13:08:30;4.85;;;1.85;;
74375;SDS011;62812;55.188;61.302;2022-10-31T13:11:04;6.38;;;2.50;;
74375;SDS011;62812;55.188;61.302;2022-10-31T13:13:37;7.43;;;2.30;;
74375;SDS011;62812;55.188;61.302;2022-10-31T13:16:09;5.47;;;1.30;;
74375;SDS011;62812;55.188;61.302;2022-10-31T13:18:44;5.30;;;2.00;;
74375;SDS011;62812;55.188;61.302;2022-10-31T13:21:16;5.00;;;2.10;;
74375;SDS011;62812;55.188;61.302;2022-10-31T13:23:48;4.50;;;2.10;;
74375;SDS011;62812;55.188;61.302;2022-10-31T13:26:21;5.78;;;2.03;;
74375;SDS011;62812;55.188;61.302;2022-10-31T13:28:59;5.03;;;1.88;;
74375;SDS011;62812;55.188;61.302;2022-10-31T13:31:30;4.82;;;2.20;;
74375;SDS011;62812;55.188;61.302;2022-10-31T13:33:57;4.80;;;2.20;;
74375;SDS011;62812;55.188;61.302;2022-10-31T13:36:30;6.53;;;2.63;;
74375;SDS011;62812;55.188;61.302;2022-10-31T13:39:10;6.63;;;2.55;;
74375;SDS011;62812;55.188;61.302;2022-10-31T13:41:52;6.50;;;2.60;;
74375;SDS011;62812;55.188;61.302;2022-10-31T13:44:24;7.43;;;2.50;;
74375;SDS011;62812;55.188;61.302;2022-10-31T13:46:53;6.80;;;3.00;;
74375;SDS011;62812;55.188;61.302;2022-10-31T13:49:37;6.88;;;2.75;;
74375;SDS011;62812;55.188;61.302;2022-10-31T13:52:05;5.03;;;2.20;;
74375;SDS011;62812;55.188;61.302;2022-10-31T13:54:49;6.50;;;2.42;;
74375;SDS011;62812;55.188;61.302;2022-10-31T13:57:23;6.25;;;2.85;;
74375;SDS011;62812;55.188;61.302;2022-10-31T14:00:00;6.20;;;2.55;;
74375;SDS011;62812;55.188;61.302;2022-10-31T14:02:30;6.32;;;2.70;;
74375;SDS011;62812;55.188;61.302;2022-10-31T14:05:01;6.03;;;2.55;;
74375;SDS011;62812;55.188;61.302;2022-10-31T14:07:33;6.60;;;2.75;;
74375;SDS011;62812;55.188;61.302;2022-10-31T14:10:03;5.20;;;2.10;;
74375;SDS011;62812;55.188;61.302;2022-10-31T14:12:45;6.07;;;2.50;;
74375;SDS011;62812;55.188;61.302;2022-10-31T14:15:17;7.93;;;2.90;;
74375;SDS011;62812;55.188;61.302;2022-10-31T14:17:46;5.45;;;2.45;;
74375;SDS011;62812;55.188;61.302;2022-10-31T14:20:34;5.13;;;2.45;;
74375;SDS011;62812;55.188;61.302;2022-10-31T14:23:13;4.30;;;1.65;;
74375;SDS011;62812;55.188;61.302;2022-10-31T14:26:29;5.93;;;2.38;;
74375;SDS011;62812;55.188;61.302;2022-10-31T14:28:58;6.18;;;2.80;;
74375;SDS011;62812;55.188;61.302;2022-10-31T14:31:30;6.05;;;2.63;;
74375;SDS011;62812;55.188;61.302;2022-10-31T14:34:04;5.95;;;2.58;;
74375;SDS011;62812;55.188;61.302;2022-10-31T14:36:47;5.82;;;2.30;;
74375;SDS011;62812;55.188;61.302;2022-10-31T14:39:33;5.60;;;2.38;;
74375;SDS011;62812;55.188;61.302;2022-10-31T14:42:10;5.53;;;2.38;;
74375;SDS011;62812;55.188;61.302;2022-10-31T14:45:02;5.90;;;2.78;;
74375;SDS011;62812;55.188;61.302;2022-10-31T14:47:43;7.35;;;3.05;;
74375;SDS011;62812;55.188;61.302;2022-10-31T14:50:24;6.85;;;2.80;;
74375;SDS011;62812;55.188;61.302;2022-10-31T14:53:02;6.95;;;2.90;;
74375;SDS011;62812;55.188;61.302;2022-10-31T14:55:31;6.35;;;2.63;;
74375;SDS011;62812;55.188;61.302;2022-10-31T14:58:00;5.53;;;2.30;;
74375;SDS011;62812;55.188;61.302;2022-10-31T15:00:34;6.32;;;2.80;;
74375;SDS011;62812;55.188;61.302;2022-10-31T15:03:06;6.78;;;2.85;;
74375;SDS011;62812;55.188;61.302;2022-10-31T15:10:38;6.95;;;3.03;;
74375;SDS011;62812;55.188;61.302;2022-10-31T15:13:17;11.68;;;4.80;;
74375;SDS011;62812;55.188;61.302;2022-10-31T15:15:46;12.10;;;5.40;;
74375;SDS011;62812;55.188;61.302;2022-10-31T15:18:17;11.90;;;5.35;;
74375;SDS011;62812;55.188;61.302;2022-10-31T15:20:46;14.88;;;6.32;;
74375;SDS011;62812;55.188;61.302;2022-10-31T15:23:16;13.05;;;6.63;;
74375;SDS011;62812;55.188;61.302;2022-10-31T15:25:46;13.50;;;5.43;;
74375;SDS011;62812;55.188;61.302;2022-10-31T15:28:14;12.07;;;5.78;;
74375;SDS011;62812;55.188;61.302;2022-10-31T15:30:51;15.43;;;6.72;;